Accueil
METAR-TAF:

METAR-TAF

Aéroports :

Aéroport international Diori Hamani

Niamey, Niger

latitude: 13-29N, longitude: 002-10E, altitude: 223 m

Observation

Le bulletin a été fait il y a 30 minutes, à 07:00 UTC
Vent 5 kt de nord
Température 18°C
Humidité 12%
Pression 1013 hPa
Visibilité: 8000 m

METAR: DRRN 230700Z 01005KT 8000 NSC 18/M12 Q1013 NOSIG

Heure: 08:30 (07:30 UTC)

Prévision

Le bulletin a été fait il y a 2 heures et 30 minutes, à 05:00 UTC
Prévision valable du 23 à 06 UTC au 24 à 12 UTC
Vent 8 kt de nord/nord-est
Visibilité: 8000 m
Temporairement
du 23 à 06 UTC au 23 à 09 UTC
Visibilité: 4000 m
poussière généralisée
Temporairement
du 23 à 17 UTC au 23 à 20 UTC
Visibilité: 4000 m
poussière généralisée

TAF: DRRN 230500Z 2306/2412 02008KT 8000 NSC TEMPO 2306/2309 4000 DU TEMPO 2317/2320 4000 DU

Observations et prévisions météorologiques de plus de 4000 aéroports (messages METAR et TAF).

Les stations disponibles sont représentées par des disques jaunes et rouges sur la carte.

Passer la souris dessus pour voir le nom de la station.

Cliquer dessus pour voir les observations et prévisions météorologiques.

Pour changer de carte: cliquez sur les boutons verts avec une croix noire pour zoomer, sur le bouton vert avec un tiret pour effectuer un zoom arrière, ou sur les flèches vertes pour les cartes adjacentes.


METAR-TAF: